createdAt,value
2022-08-16T00:01:42.674Z,99.90
2022-08-16T00:04:13.461Z,99.90
2022-08-16T00:06:42.120Z,99.90
2022-08-16T00:09:12.264Z,99.90
2022-08-16T00:11:44.688Z,99.90
2022-08-16T00:14:18.524Z,99.90
2022-08-16T00:17:00.776Z,99.90
2022-08-16T00:19:41.170Z,99.90
2022-08-16T00:22:13.732Z,99.90
2022-08-16T00:24:46.941Z,99.90
2022-08-16T00:27:18.789Z,99.90
2022-08-16T00:29:47.822Z,99.90
2022-08-16T00:32:32.870Z,99.90
2022-08-16T00:35:02.248Z,99.90
2022-08-16T00:37:57.624Z,99.90
2022-08-16T00:40:50.733Z,99.90
2022-08-16T00:43:40.814Z,99.90
2022-08-16T00:46:37.468Z,99.90
2022-08-16T00:49:22.803Z,99.90
2022-08-16T00:51:54.888Z,99.90
2022-08-16T00:54:27.620Z,99.90
2022-08-16T00:56:59.987Z,99.90
2022-08-16T00:59:34.394Z,99.90
2022-08-16T01:02:31.515Z,99.90
2022-08-16T01:05:11.350Z,99.90
2022-08-16T01:07:51.646Z,99.90
2022-08-16T01:10:32.628Z,99.90
2022-08-16T01:13:12.433Z,99.90
2022-08-16T01:15:52.576Z,99.90
2022-08-16T01:18:40.536Z,99.90
2022-08-16T01:21:49.679Z,99.90
2022-08-16T01:24:52.154Z,99.90
2022-08-16T01:27:38.634Z,99.90
2022-08-16T01:30:21.867Z,99.90
2022-08-16T01:33:02.859Z,99.90
2022-08-16T01:35:59.595Z,99.90
2022-08-16T01:38:35.022Z,99.90
2022-08-16T01:41:13.480Z,99.90
2022-08-16T01:43:54.612Z,99.90
2022-08-16T01:46:39.353Z,99.90
2022-08-16T01:49:43.468Z,99.90
2022-08-16T01:52:28.006Z,99.90
2022-08-16T01:55:35.727Z,99.90
2022-08-16T01:58:06.764Z,99.90
2022-08-16T02:00:40.496Z,99.90
2022-08-16T02:03:12.556Z,99.90
2022-08-16T02:05:51.802Z,99.90
2022-08-16T02:08:33.452Z,99.90
2022-08-16T02:11:06.531Z,99.90
2022-08-16T02:13:41.845Z,99.90
2022-08-16T02:16:18.384Z,99.90
2022-08-16T02:18:48.371Z,99.90
2022-08-16T02:21:17.271Z,99.90
2022-08-16T02:24:00.089Z,99.90
2022-08-16T02:26:29.691Z,99.90
2022-08-16T02:29:03.069Z,99.90
2022-08-16T02:32:03.245Z,99.90
2022-08-16T02:34:21.625Z,99.90
2022-08-16T02:37:02.947Z,99.90
2022-08-16T02:39:31.755Z,99.90
2022-08-16T02:42:02.433Z,99.90
2022-08-16T02:44:31.450Z,99.90
2022-08-16T02:47:02.580Z,99.90
2022-08-16T02:50:52.925Z,99.90
2022-08-16T02:52:29.254Z,99.90
2022-08-16T02:55:05.300Z,99.90
2022-08-16T02:57:33.600Z,99.90
2022-08-16T03:00:34.195Z,99.90
2022-08-16T03:02:57.913Z,99.90
2022-08-16T03:05:30.774Z,99.90
2022-08-16T03:08:01.126Z,99.90
2022-08-16T03:10:34.301Z,99.90
2022-08-16T03:13:12.505Z,99.90
2022-08-16T03:15:42.119Z,99.90
2022-08-16T03:18:12.543Z,99.90
2022-08-16T03:20:55.886Z,99.90
2022-08-16T03:23:25.537Z,99.90
2022-08-16T03:26:04.244Z,99.90
2022-08-16T03:28:32.674Z,99.90
2022-08-16T03:31:02.391Z,99.90
2022-08-16T03:33:30.592Z,99.90
2022-08-16T03:36:19.985Z,99.90
2022-08-16T03:38:54.470Z,99.90
2022-08-16T03:41:29.637Z,99.90
2022-08-16T03:44:43.311Z,99.90
2022-08-16T03:47:10.296Z,99.90
2022-08-16T03:49:40.986Z,99.90
2022-08-16T03:52:13.496Z,99.90
2022-08-16T03:54:53.616Z,99.90
2022-08-16T03:57:31.788Z,99.90
2022-08-16T04:00:35.951Z,99.90
2022-08-16T04:03:11.805Z,99.90
2022-08-16T04:05:48.674Z,99.90
2022-08-16T04:08:24.078Z,99.90
2022-08-16T04:11:02.821Z,99.90
2022-08-16T04:14:01.162Z,99.90
2022-08-16T04:16:27.217Z,99.90
2022-08-16T04:19:01.277Z,99.90
2022-08-16T04:21:36.182Z,99.90
2022-08-16T04:24:14.861Z,99.90
2022-08-16T04:26:45.981Z,99.90
2022-08-16T04:29:23.618Z,99.90
2022-08-16T04:31:58.071Z,99.90
2022-08-16T04:34:36.890Z,99.90
2022-08-16T04:37:07.302Z,99.90
2022-08-16T04:39:47.055Z,99.90
2022-08-16T04:42:26.378Z,99.90
2022-08-16T04:44:58.891Z,99.90
2022-08-16T04:47:35.744Z,99.90
2022-08-16T04:50:14.529Z,99.90
2022-08-16T04:53:03.668Z,99.90
2022-08-16T04:55:38.428Z,99.90
2022-08-16T04:58:44.082Z,99.90
2022-08-16T05:00:58.980Z,99.90
2022-08-16T05:03:29.032Z,99.90
2022-08-16T05:05:59.964Z,99.90
2022-08-16T05:08:34.345Z,99.90
2022-08-16T05:11:20.282Z,99.90
2022-08-16T05:13:49.447Z,99.90
2022-08-16T05:16:30.034Z,99.90
2022-08-16T05:19:13.379Z,99.90
2022-08-16T05:22:04.729Z,99.90
2022-08-16T05:24:35.220Z,99.90
2022-08-16T05:27:11.430Z,99.90
2022-08-16T05:29:57.748Z,99.90
2022-08-16T05:32:36.441Z,99.90
2022-08-16T05:35:13.189Z,99.90
2022-08-16T05:38:00.168Z,99.90
2022-08-16T05:40:30.978Z,99.90
2022-08-16T05:43:00.410Z,99.90
2022-08-16T05:45:32.862Z,99.90
2022-08-16T05:48:06.040Z,99.90
2022-08-16T05:50:52.930Z,99.90
2022-08-16T05:53:24.372Z,99.90
2022-08-16T05:56:19.414Z,99.90
2022-08-16T05:58:49.247Z,99.90
2022-08-16T06:01:18.240Z,99.90
2022-08-16T06:03:50.949Z,99.90
2022-08-16T06:06:29.228Z,99.90
2022-08-16T06:08:59.289Z,99.90
2022-08-16T06:11:27.965Z,99.90
2022-08-16T06:14:01.301Z,99.90
2022-08-16T06:16:40.120Z,99.90
2022-08-16T06:19:08.468Z,99.90
2022-08-16T06:21:41.287Z,99.90
2022-08-16T06:24:53.868Z,99.90
2022-08-16T06:26:58.280Z,99.90
2022-08-16T06:29:32.616Z,99.90
2022-08-16T06:32:02.853Z,99.90
2022-08-16T06:34:57.191Z,99.90
2022-08-16T06:37:20.632Z,99.90
2022-08-16T06:39:50.266Z,99.90
2022-08-16T06:42:25.857Z,99.90
2022-08-16T06:45:15.052Z,99.90
2022-08-16T06:47:53.092Z,99.90
2022-08-16T06:50:28.555Z,99.90
2022-08-16T06:53:09.124Z,99.90
2022-08-16T06:55:44.568Z,99.90
2022-08-16T06:58:22.117Z,99.90
2022-08-16T07:01:09.769Z,99.90
2022-08-16T07:03:54.669Z,99.90
2022-08-16T07:06:27.283Z,99.90
2022-08-16T07:08:59.218Z,99.90
2022-08-16T07:11:46.029Z,99.90
2022-08-16T07:14:24.198Z,99.90
2022-08-16T07:16:59.832Z,99.90
2022-08-16T07:20:03.990Z,99.90
2022-08-16T07:22:38.386Z,99.90
2022-08-16T07:25:14.175Z,99.90
2022-08-16T07:27:43.768Z,99.90
2022-08-16T07:30:39.877Z,99.90
2022-08-16T07:33:09.397Z,99.90
2022-08-16T07:35:44.289Z,99.90
2022-08-16T07:38:19.908Z,99.90
2022-08-16T07:41:00.524Z,99.90
2022-08-16T07:43:32.386Z,99.90
2022-08-16T07:46:37.590Z,99.90
2022-08-16T07:49:02.270Z,99.90
2022-08-16T07:51:37.123Z,99.90
2022-08-16T07:54:10.604Z,99.90
2022-08-16T07:56:45.823Z,99.90
2022-08-16T07:59:13.920Z,99.90
2022-08-16T08:01:43.737Z,99.90
2022-08-16T08:04:13.999Z,99.90
2022-08-16T08:06:46.714Z,99.90
2022-08-16T08:09:21.627Z,99.90
2022-08-16T08:12:00.765Z,99.90
2022-08-16T08:14:34.160Z,99.90
2022-08-16T08:17:05.270Z,99.90
2022-08-16T08:19:37.468Z,99.90
2022-08-16T08:22:19.444Z,99.90
2022-08-16T08:24:59.011Z,99.90
2022-08-16T08:27:32.585Z,99.90
2022-08-16T08:30:49.721Z,99.90
2022-08-16T08:32:59.610Z,99.90
2022-08-16T08:35:35.018Z,99.90
2022-08-16T08:38:08.299Z,99.90
2022-08-16T08:40:39.962Z,99.90
2022-08-16T08:43:18.278Z,99.90
2022-08-16T08:45:54.667Z,99.90
2022-08-16T08:48:34.731Z,99.90
2022-08-16T08:51:09.835Z,99.90
2022-08-16T08:54:10.726Z,99.90
2022-08-16T08:56:45.845Z,99.90
2022-08-16T08:59:47.407Z,99.90
2022-08-16T09:02:19.452Z,99.90
2022-08-16T09:04:52.279Z,99.90
2022-08-16T09:07:23.732Z,99.90
2022-08-16T09:10:06.437Z,99.90
2022-08-16T09:12:37.798Z,99.90
2022-08-16T09:15:11.531Z,99.90
2022-08-16T09:17:53.618Z,99.90
2022-08-16T09:20:30.727Z,99.90
2022-08-16T09:23:02.722Z,99.90
2022-08-16T09:25:36.254Z,99.90
2022-08-16T09:28:10.533Z,99.90
2022-08-16T09:30:59.781Z,99.90
2022-08-16T09:33:28.398Z,99.90
2022-08-16T09:36:12.313Z,99.90
2022-08-16T09:39:05.524Z,99.90
2022-08-16T09:41:53.067Z,99.90
2022-08-16T09:45:09.167Z,99.30
2022-08-16T09:47:14.737Z,99.20
2022-08-16T09:49:43.115Z,97.80
2022-08-16T09:52:19.106Z,98.50
2022-08-16T09:54:50.759Z,97.40
2022-08-16T09:57:18.710Z,97.80
2022-08-16T09:59:46.725Z,98.90
2022-08-16T10:02:27.368Z,98.70
2022-08-16T10:04:57.953Z,97.70
2022-08-16T10:07:44.278Z,97.00
2022-08-16T10:10:19.113Z,96.50
2022-08-16T10:13:12.061Z,96.30
2022-08-16T10:15:53.356Z,98.00
2022-08-16T10:18:54.141Z,95.80
2022-08-16T10:21:15.737Z,96.40
2022-08-16T10:23:44.948Z,96.90
2022-08-16T10:27:17.315Z,95.60
2022-08-16T10:29:06.616Z,94.80
2022-08-16T10:31:44.562Z,95.00
2022-08-16T10:34:31.615Z,95.20
2022-08-16T10:37:02.072Z,93.50
2022-08-16T10:44:09.521Z,95.30
2022-08-16T10:46:41.680Z,96.20
2022-08-16T10:49:16.589Z,95.00
2022-08-16T10:52:01.105Z,93.70
2022-08-16T10:54:32.227Z,93.80
2022-08-16T10:57:04.330Z,94.60
2022-08-16T10:59:44.049Z,92.80
2022-08-16T11:02:58.304Z,94.10
2022-08-16T11:05:14.440Z,93.30
2022-08-16T11:07:52.011Z,93.30
2022-08-16T11:19:12.490Z,92.10
2022-08-16T11:24:39.424Z,91.20
2022-08-16T11:27:19.683Z,90.80
2022-08-16T11:29:52.852Z,90.40
2022-08-16T11:32:31.607Z,90.30
2022-08-16T11:35:14.754Z,90.50
2022-08-16T11:38:46.725Z,89.50
2022-08-16T11:41:01.959Z,89.20
2022-08-16T11:43:36.369Z,90.10
2022-08-16T11:46:43.843Z,87.60
2022-08-16T11:49:01.257Z,89.40
2022-08-16T11:51:29.380Z,91.00
2022-08-16T11:53:57.891Z,89.30
2022-08-16T11:56:39.733Z,90.00
2022-08-16T11:59:14.863Z,87.50
2022-08-16T12:01:59.550Z,87.10
2022-08-16T12:04:30.220Z,89.00
2022-08-16T12:06:58.781Z,90.40
2022-08-16T12:09:29.640Z,89.00
2022-08-16T12:12:02.759Z,89.20
2022-08-16T12:14:35.491Z,86.40
2022-08-16T12:17:08.335Z,88.30
2022-08-16T12:19:36.526Z,89.50
2022-08-16T12:22:18.923Z,88.80
2022-08-16T12:24:51.940Z,86.60
2022-08-16T12:27:24.490Z,86.30
2022-08-16T12:29:58.720Z,83.40
2022-08-16T12:32:38.406Z,82.30
2022-08-16T12:35:15.112Z,83.40
2022-08-16T12:37:47.287Z,85.60
2022-08-16T12:40:24.804Z,85.90
2022-08-16T12:42:58.558Z,87.00
2022-08-16T12:45:32.196Z,87.70
2022-08-16T12:48:33.564Z,86.70
2022-08-16T12:51:13.581Z,86.00
2022-08-16T12:53:52.018Z,84.10
2022-08-16T12:56:25.396Z,81.60
2022-08-16T12:58:56.288Z,86.10
2022-08-16T13:01:29.664Z,82.80
2022-08-16T13:04:12.054Z,82.30
2022-08-16T13:06:48.989Z,81.90
2022-08-16T13:09:26.375Z,82.80
2022-08-16T13:12:16.178Z,81.50
2022-08-16T13:14:44.235Z,81.40
2022-08-16T13:17:20.327Z,82.40
2022-08-16T13:20:09.482Z,83.00
2022-08-16T13:22:53.380Z,83.50
2022-08-16T13:25:25.232Z,83.10
2022-08-16T13:28:03.506Z,83.30
2022-08-16T13:30:41.758Z,83.40
2022-08-16T13:33:29.755Z,80.20
2022-08-16T13:36:00.377Z,80.20
2022-08-16T13:38:37.751Z,80.20
2022-08-16T13:41:12.426Z,78.70
2022-08-16T13:43:41.980Z,82.10
2022-08-16T13:46:10.981Z,79.30
2022-08-16T13:48:44.248Z,80.10
2022-08-16T13:51:18.587Z,80.10
2022-08-16T13:53:49.529Z,81.30
2022-08-16T13:56:25.378Z,80.60
2022-08-16T13:58:53.957Z,81.80
2022-08-16T14:01:22.863Z,79.50
2022-08-16T14:03:54.509Z,80.10
2022-08-16T14:06:23.033Z,77.50
2022-08-16T14:08:59.125Z,78.80
2022-08-16T14:11:35.231Z,76.70
2022-08-16T14:14:05.477Z,75.00
2022-08-16T14:16:34.819Z,79.10
2022-08-16T14:19:04.117Z,77.30
2022-08-16T14:21:35.288Z,77.40
2022-08-16T14:24:08.120Z,77.60
2022-08-16T14:26:50.784Z,77.80
2022-08-16T14:29:21.426Z,76.30
2022-08-16T14:31:53.601Z,76.60
2022-08-16T14:34:25.778Z,75.70
2022-08-16T14:36:57.652Z,76.00
2022-08-16T14:39:28.190Z,77.80
2022-08-16T14:41:57.100Z,77.10
2022-08-16T14:44:26.979Z,77.30
2022-08-16T14:46:56.883Z,79.20
2022-08-16T14:49:24.529Z,77.50
2022-08-16T14:51:53.147Z,80.50
2022-08-16T14:54:21.706Z,80.30
2022-08-16T14:56:54.672Z,82.20
2022-08-16T14:59:23.385Z,82.60
2022-08-16T15:01:58.708Z,82.90
2022-08-16T15:04:32.426Z,83.60
2022-08-16T15:07:12.823Z,82.10
2022-08-16T15:09:44.188Z,82.80
2022-08-16T15:12:31.009Z,82.60
2022-08-16T15:15:04.174Z,85.00
2022-08-16T15:17:33.884Z,85.20
2022-08-16T15:20:09.223Z,86.60
2022-08-16T15:22:49.312Z,87.20
2022-08-16T15:25:27.775Z,87.50
2022-08-16T15:28:02.470Z,86.40
2022-08-16T15:30:59.782Z,87.00
2022-08-16T15:33:25.583Z,86.20
2022-08-16T15:35:55.511Z,86.00
2022-08-16T15:38:54.668Z,87.80
2022-08-16T15:41:36.707Z,87.50
2022-08-16T15:44:10.404Z,86.10
2022-08-16T15:46:54.741Z,86.80
2022-08-16T15:49:37.979Z,86.60
2022-08-16T15:52:37.687Z,86.20
2022-08-16T15:55:23.772Z,87.70
2022-08-16T15:57:57.490Z,88.90
2022-08-16T16:00:26.976Z,86.40
2022-08-16T16:03:08.455Z,89.30
2022-08-16T16:05:39.195Z,87.70
2022-08-16T16:08:11.410Z,86.10
2022-08-16T16:10:40.555Z,86.70
2022-08-16T16:13:11.458Z,88.10
2022-08-16T16:15:44.036Z,87.90
2022-08-16T16:18:13.359Z,89.10
2022-08-16T16:20:46.597Z,90.10
2022-08-16T16:23:19.189Z,87.50
2022-08-16T16:25:52.318Z,89.00
2022-08-16T16:28:46.345Z,88.00
2022-08-16T16:31:14.470Z,89.60
2022-08-16T16:33:45.298Z,90.50
2022-08-16T16:36:17.431Z,90.40
2022-08-16T16:38:47.487Z,90.20
2022-08-16T16:41:22.376Z,88.50
2022-08-16T16:43:53.533Z,89.90
2022-08-16T16:46:41.227Z,89.00
2022-08-16T16:49:13.902Z,88.70
2022-08-16T16:51:44.761Z,90.10
2022-08-16T16:54:22.459Z,90.40
2022-08-16T16:56:57.785Z,91.10
2022-08-16T16:59:28.443Z,90.20
2022-08-16T17:02:01.504Z,90.90
2022-08-16T17:04:45.137Z,90.40
2022-08-16T17:07:13.700Z,90.50
2022-08-16T17:09:42.046Z,90.50
2022-08-16T17:12:17.636Z,90.40
2022-08-16T17:14:53.892Z,90.70
2022-08-16T17:17:22.062Z,91.90
2022-08-16T17:19:50.466Z,91.40
2022-08-16T17:22:21.203Z,91.20
2022-08-16T17:24:52.367Z,92.50
2022-08-16T17:27:33.954Z,92.30
2022-08-16T17:30:15.564Z,94.20
2022-08-16T17:32:50.670Z,95.80
2022-08-16T17:35:34.197Z,94.60
2022-08-16T17:38:08.021Z,96.50
2022-08-16T17:40:55.168Z,96.20
2022-08-16T17:43:33.046Z,97.30
2022-08-16T17:46:02.500Z,98.20
2022-08-16T17:48:35.738Z,97.10
2022-08-16T17:51:06.003Z,96.60
2022-08-16T17:53:35.860Z,96.80
2022-08-16T17:56:03.972Z,97.40
2022-08-16T17:58:32.308Z,98.00
2022-08-16T18:01:02.179Z,98.60
2022-08-16T18:04:02.507Z,99.00
2022-08-16T18:06:25.175Z,99.20
2022-08-16T18:09:01.624Z,99.20
2022-08-16T18:11:33.834Z,99.90
2022-08-16T18:14:02.460Z,99.80
2022-08-16T18:16:29.851Z,99.90
2022-08-16T18:18:57.476Z,99.90
2022-08-16T18:21:44.307Z,99.90
2022-08-16T18:24:14.904Z,99.90
2022-08-16T18:26:43.105Z,99.90
2022-08-16T18:29:11.213Z,99.90
2022-08-16T18:31:38.694Z,99.90
2022-08-16T18:34:06.812Z,99.90
2022-08-16T18:36:37.283Z,99.90
2022-08-16T18:39:06.167Z,99.90
2022-08-16T18:41:37.006Z,99.90
2022-08-16T18:44:26.444Z,99.90
2022-08-16T18:46:55.291Z,99.90
2022-08-16T18:49:24.202Z,99.90
2022-08-16T18:51:57.009Z,99.90
2022-08-16T18:54:26.306Z,99.90
2022-08-16T18:56:56.693Z,99.90
2022-08-16T18:59:27.628Z,99.90
2022-08-16T19:02:00.262Z,99.90
2022-08-16T19:04:55.212Z,99.90
2022-08-16T19:07:29.729Z,99.90
2022-08-16T19:10:00.831Z,99.90
2022-08-16T19:12:38.678Z,99.90
2022-08-16T19:15:16.148Z,99.90
2022-08-16T19:17:46.076Z,99.90
2022-08-16T19:20:20.982Z,99.90
2022-08-16T19:23:05.702Z,99.90
2022-08-16T19:25:46.803Z,99.90
2022-08-16T19:28:46.624Z,99.90
2022-08-16T19:31:12.127Z,99.90
2022-08-16T19:33:47.265Z,99.90
2022-08-16T19:36:35.485Z,99.90
2022-08-16T19:39:10.590Z,99.90
2022-08-16T19:41:44.698Z,99.90
2022-08-16T19:44:13.173Z,99.90
2022-08-16T19:46:45.776Z,99.90
2022-08-16T19:49:16.114Z,99.90
2022-08-16T19:51:44.956Z,99.90
2022-08-16T19:54:13.046Z,99.90
2022-08-16T19:56:41.432Z,99.90
2022-08-16T19:59:40.407Z,99.90
2022-08-16T20:01:57.447Z,99.90
2022-08-16T20:04:25.795Z,99.90
2022-08-16T20:06:55.131Z,99.90
2022-08-16T20:09:24.059Z,99.90
2022-08-16T20:11:54.349Z,99.90
2022-08-16T20:14:26.329Z,99.90
2022-08-16T20:16:59.533Z,99.90
2022-08-16T20:19:28.353Z,99.90
2022-08-16T20:22:01.891Z,99.90
2022-08-16T20:24:34.851Z,99.90
2022-08-16T20:27:07.679Z,99.90
2022-08-16T20:29:35.954Z,99.90
2022-08-16T20:32:06.410Z,99.90
2022-08-16T20:34:34.670Z,99.90
2022-08-16T20:37:02.751Z,99.90
2022-08-16T20:39:29.870Z,99.90
2022-08-16T20:41:56.911Z,99.90
2022-08-16T20:44:25.213Z,99.90
2022-08-16T20:46:53.963Z,99.90
2022-08-16T20:49:20.978Z,99.90
2022-08-16T20:51:54.609Z,99.90
2022-08-16T20:54:24.032Z,99.90
2022-08-16T20:56:52.440Z,99.90
2022-08-16T20:59:20.023Z,99.90
2022-08-16T21:01:50.586Z,99.90
2022-08-16T21:04:24.290Z,99.90
2022-08-16T21:06:53.648Z,99.90
2022-08-16T21:09:24.143Z,99.90
2022-08-16T21:11:54.792Z,99.90
2022-08-16T21:14:23.075Z,99.90
2022-08-16T21:16:51.394Z,99.90
2022-08-16T21:19:19.986Z,99.90
2022-08-16T21:21:48.657Z,99.90
2022-08-16T21:24:16.292Z,99.90
2022-08-16T21:26:49.806Z,99.90
2022-08-16T21:29:27.894Z,99.90
2022-08-16T21:32:13.351Z,99.90
2022-08-16T21:34:42.029Z,99.90
2022-08-16T21:37:09.170Z,99.90
2022-08-16T21:39:37.508Z,99.90
2022-08-16T21:42:11.254Z,99.90
2022-08-16T21:44:39.905Z,99.90
2022-08-16T21:47:08.308Z,99.90
2022-08-16T21:49:37.162Z,99.90
2022-08-16T21:52:06.876Z,99.90
2022-08-16T21:54:34.268Z,99.90
2022-08-16T21:57:04.717Z,99.90
2022-08-16T21:59:35.521Z,99.90
2022-08-16T22:02:02.949Z,99.90
2022-08-16T22:04:37.702Z,99.90
2022-08-16T22:07:07.631Z,99.90
2022-08-16T22:09:35.221Z,99.90
2022-08-16T22:12:04.574Z,99.90
2022-08-16T22:14:31.544Z,99.90
2022-08-16T22:16:58.849Z,99.90
2022-08-16T22:19:27.004Z,99.90
2022-08-16T22:21:53.914Z,99.90
2022-08-16T22:24:22.088Z,99.90
2022-08-16T22:26:49.811Z,99.90
2022-08-16T22:29:19.148Z,99.90
2022-08-16T22:31:46.961Z,99.90
2022-08-16T22:34:15.033Z,99.90
2022-08-16T22:36:42.701Z,99.90
2022-08-16T22:39:13.555Z,99.90
2022-08-16T22:41:45.259Z,99.90
2022-08-16T22:44:13.188Z,99.90
2022-08-16T22:46:41.349Z,99.90
2022-08-16T22:49:10.637Z,99.90
2022-08-16T22:51:38.683Z,99.90
2022-08-16T22:54:44.103Z,99.90
2022-08-16T22:56:56.491Z,99.90
2022-08-16T22:59:25.193Z,99.90
2022-08-16T23:01:53.510Z,99.90
2022-08-16T23:04:22.923Z,99.90
2022-08-16T23:06:52.107Z,99.90
2022-08-16T23:09:19.984Z,99.90
2022-08-16T23:11:48.099Z,99.90
2022-08-16T23:14:16.390Z,99.90
2022-08-16T23:16:47.127Z,99.90
2022-08-16T23:19:16.490Z,99.90
2022-08-16T23:21:47.169Z,99.90
2022-08-16T23:24:20.466Z,99.90
2022-08-16T23:26:49.760Z,99.90
2022-08-16T23:29:25.473Z,99.90
2022-08-16T23:32:11.136Z,99.90
2022-08-16T23:34:39.022Z,99.90
2022-08-16T23:37:07.211Z,99.90
2022-08-16T23:39:35.849Z,99.90
2022-08-16T23:42:12.989Z,99.90
2022-08-16T23:44:57.430Z,99.90
2022-08-16T23:47:27.000Z,99.90
2022-08-16T23:50:00.391Z,99.90
2022-08-16T23:52:40.495Z,99.90
2022-08-16T23:55:19.599Z,99.90
2022-08-16T23:57:47.618Z,99.90
